createdAt,value
2023-04-27T00:01:47.865Z,16.17
2023-04-27T00:04:14.814Z,11.02
2023-04-27T00:06:41.932Z,18.15
2023-04-27T00:09:08.849Z,11.10
2023-04-27T00:11:35.512Z,12.13
2023-04-27T00:14:02.101Z,10.20
2023-04-27T00:16:28.770Z,12.48
2023-04-27T00:18:55.813Z,14.60
2023-04-27T00:21:22.419Z,10.80
2023-04-27T00:23:49.008Z,14.18
2023-04-27T00:26:15.744Z,11.32
2023-04-27T00:28:46.941Z,11.88
2023-04-27T00:31:13.554Z,15.30
2023-04-27T00:33:40.146Z,15.00
2023-04-27T00:36:06.894Z,12.40
2023-04-27T00:38:34.677Z,12.15
2023-04-27T00:41:01.380Z,13.60
2023-04-27T00:43:28.020Z,14.40
2023-04-27T00:45:54.740Z,12.57
2023-04-27T00:48:23.639Z,11.18
2023-04-27T00:50:50.807Z,17.10
2023-04-27T00:53:17.417Z,14.40
2023-04-27T00:55:44.025Z,9.80
2023-04-27T00:58:11.849Z,13.30
2023-04-27T01:00:39.081Z,9.05
2023-04-27T01:03:05.727Z,13.85
2023-04-27T01:05:32.769Z,12.10
2023-04-27T01:08:01.802Z,14.25
2023-04-27T01:10:28.535Z,9.73
2023-04-27T01:12:55.624Z,12.10
2023-04-27T01:15:22.296Z,14.82
2023-04-27T01:18:09.046Z,13.10
2023-04-27T01:20:36.268Z,14.23
2023-04-27T01:23:03.413Z,11.43
2023-04-27T01:25:30.063Z,15.60
2023-04-27T01:27:58.857Z,11.88
2023-04-27T01:30:26.071Z,11.98
2023-04-27T01:32:52.720Z,10.40
2023-04-27T01:35:19.375Z,16.63
2023-04-27T01:37:47.228Z,13.20
2023-04-27T01:40:13.904Z,12.38
2023-04-27T01:42:40.798Z,13.82
2023-04-27T01:45:08.595Z,16.88
2023-04-27T01:47:36.429Z,19.58
2023-04-27T01:50:03.894Z,19.90
2023-04-27T01:52:30.706Z,14.57
2023-04-27T01:54:57.364Z,15.77
2023-04-27T01:57:25.473Z,13.55
2023-04-27T01:59:52.193Z,16.45
2023-04-27T02:02:18.878Z,14.73
2023-04-27T02:04:45.691Z,13.93
2023-04-27T02:07:13.612Z,21.27
2023-04-27T02:09:40.213Z,17.02
2023-04-27T02:12:08.566Z,17.65
2023-04-27T02:14:35.435Z,16.60
2023-04-27T02:17:02.161Z,19.70
2023-04-27T02:19:30.048Z,21.13
2023-04-27T02:21:56.829Z,18.27
2023-04-27T02:24:23.431Z,26.02
2023-04-27T02:26:50.023Z,16.98
2023-04-27T02:29:20.437Z,17.02
2023-04-27T02:31:47.984Z,20.88
2023-04-27T02:34:14.738Z,22.77
2023-04-27T02:36:41.430Z,16.88
2023-04-27T02:39:09.334Z,15.00
2023-04-27T02:41:38.259Z,25.13
2023-04-27T02:44:04.919Z,19.88
2023-04-27T02:46:31.917Z,22.02
2023-04-27T02:48:59.892Z,21.77
2023-04-27T02:51:26.972Z,19.10
2023-04-27T02:53:54.192Z,16.63
2023-04-27T02:56:20.963Z,24.85
2023-04-27T02:58:49.035Z,23.20
2023-04-27T03:01:17.261Z,24.88
2023-04-27T03:03:44.034Z,18.05
2023-04-27T03:06:10.781Z,20.52
2023-04-27T03:08:37.588Z,19.77
2023-04-27T03:11:04.835Z,19.45
2023-04-27T03:13:31.524Z,20.23
2023-04-27T03:15:59.330Z,23.90
2023-04-27T03:18:26.642Z,18.70
2023-04-27T03:20:53.368Z,16.50
2023-04-27T03:23:21.111Z,22.25
2023-04-27T03:25:49.219Z,18.27
2023-04-27T03:28:16.494Z,19.27
2023-04-27T03:30:43.125Z,29.55
2023-04-27T03:33:09.793Z,22.13
2023-04-27T03:35:36.778Z,23.63
2023-04-27T03:38:05.577Z,19.23
2023-04-27T03:40:32.202Z,22.17
2023-04-27T03:42:59.271Z,18.50
2023-04-27T03:45:26.677Z,25.88
2023-04-27T03:47:53.631Z,24.55
2023-04-27T03:50:20.434Z,23.92
2023-04-27T03:52:47.076Z,27.65
2023-04-27T03:55:13.833Z,31.05
2023-04-27T03:57:44.313Z,23.38
2023-04-27T04:00:12.339Z,23.48
2023-04-27T04:02:42.316Z,27.65
2023-04-27T04:05:09.953Z,20.60
2023-04-27T04:07:37.908Z,22.70
2023-04-27T04:10:04.883Z,24.60
2023-04-27T04:12:31.671Z,26.23
2023-04-27T04:14:58.339Z,28.23
2023-04-27T04:17:25.296Z,29.40
2023-04-27T04:19:51.926Z,31.20
2023-04-27T04:22:18.545Z,28.50
2023-04-27T04:24:45.818Z,30.98
2023-04-27T04:27:33.379Z,29.85
2023-04-27T04:30:00.359Z,22.48
2023-04-27T04:32:30.040Z,32.08
2023-04-27T04:34:56.738Z,22.17
2023-04-27T04:37:26.939Z,25.95
2023-04-27T04:39:53.596Z,22.25
2023-04-27T04:42:21.112Z,27.95
2023-04-27T04:44:47.931Z,25.00
2023-04-27T04:47:14.571Z,28.95
2023-04-27T04:49:41.219Z,29.55
2023-04-27T04:52:08.399Z,27.95
2023-04-27T04:54:35.052Z,29.27
2023-04-27T04:57:03.564Z,37.38
2023-04-27T04:59:32.031Z,27.30
2023-04-27T05:01:58.978Z,25.13
2023-04-27T05:04:26.607Z,25.75
2023-04-27T05:06:53.419Z,37.97
2023-04-27T05:09:20.209Z,28.52
2023-04-27T05:11:46.831Z,27.77
2023-04-27T05:14:13.447Z,34.45
2023-04-27T05:16:40.144Z,32.13
2023-04-27T05:19:09.162Z,37.45
2023-04-27T05:21:35.805Z,35.70
2023-04-27T05:24:02.384Z,30.70
2023-04-27T05:26:28.949Z,32.15
2023-04-27T05:28:57.903Z,30.27
2023-04-27T05:31:24.510Z,29.00
2023-04-27T05:33:51.174Z,31.65
2023-04-27T05:36:17.817Z,33.30
2023-04-27T05:38:45.860Z,32.75
2023-04-27T05:41:12.431Z,36.17
2023-04-27T05:43:39.134Z,33.35
2023-04-27T05:46:05.915Z,30.00
2023-04-27T05:48:52.452Z,34.13
2023-04-27T05:51:19.093Z,37.58
2023-04-27T05:53:46.480Z,37.30
2023-04-27T05:56:13.093Z,41.17
2023-04-27T05:58:39.944Z,35.65
2023-04-27T06:01:06.617Z,40.00
2023-04-27T06:03:33.414Z,31.65
2023-04-27T06:06:00.318Z,36.97
2023-04-27T06:08:45.907Z,39.95
2023-04-27T06:11:12.526Z,38.05
2023-04-27T06:13:39.101Z,36.50
2023-04-27T06:16:05.781Z,38.00
2023-04-27T06:18:33.675Z,38.72
2023-04-27T06:21:01.629Z,39.78
2023-04-27T06:23:28.578Z,32.97
2023-04-27T06:25:55.450Z,39.80
2023-04-27T06:28:22.233Z,35.92
2023-04-27T06:30:48.913Z,38.13
2023-04-27T06:33:15.620Z,31.85
2023-04-27T06:35:43.210Z,36.60
2023-04-27T06:38:11.060Z,33.20
2023-04-27T06:40:37.675Z,30.88
2023-04-27T06:43:04.822Z,36.83
2023-04-27T06:45:31.425Z,35.03
2023-04-27T06:47:59.232Z,31.63
2023-04-27T06:50:26.271Z,34.75
2023-04-27T06:52:52.824Z,30.17
2023-04-27T06:55:19.475Z,35.30
2023-04-27T06:57:46.338Z,32.90
2023-04-27T07:00:13.821Z,29.02
2023-04-27T07:02:40.732Z,32.22
2023-04-27T07:05:07.512Z,31.92
2023-04-27T07:07:34.416Z,28.75
2023-04-27T07:10:01.441Z,31.45
2023-04-27T07:12:28.127Z,29.35
2023-04-27T07:14:54.729Z,31.50
2023-04-27T07:17:21.640Z,30.52
2023-04-27T07:19:48.568Z,27.17
2023-04-27T07:22:16.144Z,31.30
2023-04-27T07:24:42.805Z,33.08
2023-04-27T07:27:10.290Z,33.78
2023-04-27T07:29:37.870Z,29.58
2023-04-27T07:32:09.263Z,27.67
2023-04-27T07:34:51.752Z,24.80
2023-04-27T07:37:19.936Z,28.33
2023-04-27T07:39:49.233Z,28.33
2023-04-27T07:42:16.040Z,27.00
2023-04-27T07:44:42.849Z,25.42
2023-04-27T07:47:10.887Z,27.23
2023-04-27T07:49:37.653Z,23.63
2023-04-27T07:52:04.777Z,27.35
2023-04-27T07:54:31.613Z,21.88
2023-04-27T07:56:58.607Z,27.38
2023-04-27T07:59:25.557Z,27.70
2023-04-27T08:01:52.351Z,22.63
2023-04-27T08:04:19.256Z,26.20
2023-04-27T08:06:47.061Z,22.95
2023-04-27T08:09:16.254Z,26.00
2023-04-27T08:11:42.879Z,22.17
2023-04-27T08:14:13.760Z,22.80
2023-04-27T08:16:40.449Z,17.27
2023-04-27T08:19:07.203Z,19.80
2023-04-27T08:21:33.898Z,21.45
2023-04-27T08:24:00.681Z,23.90
2023-04-27T08:26:27.302Z,20.42
2023-04-27T08:29:26.235Z,21.17
2023-04-27T08:32:03.795Z,24.05
2023-04-27T08:34:31.968Z,22.63
2023-04-27T08:36:58.710Z,21.25
2023-04-27T08:39:26.599Z,22.60
2023-04-27T08:41:56.167Z,28.73
2023-04-27T08:44:23.135Z,21.80
2023-04-27T08:46:50.797Z,22.55
2023-04-27T08:49:17.873Z,17.77
2023-04-27T08:51:59.933Z,21.50
2023-04-27T08:54:27.152Z,21.88
2023-04-27T08:56:53.753Z,20.77
2023-04-27T08:59:22.480Z,22.20
2023-04-27T09:01:49.395Z,20.88
2023-04-27T09:04:17.711Z,20.67
2023-04-27T09:06:44.600Z,17.38
2023-04-27T09:09:12.714Z,18.60
2023-04-27T09:11:40.470Z,22.73
2023-04-27T09:14:07.138Z,22.85
2023-04-27T09:16:33.883Z,18.73
2023-04-27T09:19:01.905Z,23.98
2023-04-27T09:21:28.581Z,19.30
2023-04-27T09:23:55.644Z,23.15
2023-04-27T09:26:22.234Z,23.00
2023-04-27T09:28:50.363Z,21.88
2023-04-27T09:31:17.027Z,20.48
2023-04-27T09:33:43.795Z,21.38
2023-04-27T09:36:10.381Z,22.75
2023-04-27T09:38:37.272Z,22.83
2023-04-27T09:41:05.953Z,19.23
2023-04-27T09:43:32.632Z,18.15
2023-04-27T09:45:59.369Z,20.45
2023-04-27T09:48:28.271Z,23.20
2023-04-27T09:50:54.987Z,22.10
2023-04-27T09:53:21.792Z,17.90
2023-04-27T09:55:49.986Z,19.02
2023-04-27T09:58:18.417Z,15.38
2023-04-27T10:00:45.049Z,20.02
2023-04-27T10:03:11.877Z,14.75
2023-04-27T10:05:38.583Z,20.38
2023-04-27T10:08:24.623Z,15.20
2023-04-27T10:10:51.754Z,19.55
2023-04-27T10:13:18.397Z,18.52
2023-04-27T10:15:45.333Z,17.58
2023-04-27T10:18:13.304Z,19.48
2023-04-27T10:20:40.848Z,14.80
2023-04-27T10:23:07.848Z,16.17
2023-04-27T10:25:34.551Z,15.10
2023-04-27T10:28:02.581Z,14.90
2023-04-27T10:30:29.200Z,14.43
2023-04-27T10:32:56.037Z,17.05
2023-04-27T10:35:22.829Z,13.10
2023-04-27T10:37:52.115Z,15.90
2023-04-27T10:40:19.058Z,18.27
2023-04-27T10:42:45.846Z,17.60
2023-04-27T10:45:15.761Z,15.07
2023-04-27T10:47:45.121Z,16.30
2023-04-27T10:50:12.014Z,12.15
2023-04-27T10:52:38.682Z,16.05
2023-04-27T10:55:05.297Z,13.38
2023-04-27T10:57:33.097Z,12.48
2023-04-27T10:59:59.703Z,14.45
2023-04-27T11:02:26.684Z,16.17
2023-04-27T11:04:53.508Z,15.05
2023-04-27T11:07:20.510Z,15.32
2023-04-27T11:09:47.136Z,15.23
2023-04-27T11:12:14.029Z,11.30
2023-04-27T11:14:43.475Z,14.95
2023-04-27T11:17:11.161Z,12.55
2023-04-27T11:19:41.162Z,13.68
2023-04-27T11:22:07.845Z,11.95
2023-04-27T11:24:34.510Z,10.55
2023-04-27T11:27:01.564Z,11.43
2023-04-27T11:29:50.304Z,10.65
2023-04-27T11:32:16.900Z,13.95
2023-04-27T11:34:43.546Z,18.15
2023-04-27T11:37:18.390Z,12.93
2023-04-27T11:39:45.869Z,12.43
2023-04-27T11:42:12.570Z,17.75
2023-04-27T11:44:40.579Z,12.18
2023-04-27T11:47:07.170Z,14.77
2023-04-27T11:49:34.393Z,11.63
2023-04-27T11:52:01.054Z,11.75
2023-04-27T11:54:27.821Z,11.38
2023-04-27T11:56:54.433Z,11.85
2023-04-27T11:59:24.219Z,16.85
2023-04-27T12:01:51.000Z,10.98
2023-04-27T12:04:18.038Z,14.30
2023-04-27T12:06:44.867Z,14.60
2023-04-27T12:09:11.605Z,18.20
2023-04-27T12:11:38.390Z,11.88
2023-04-27T12:14:05.080Z,14.10
2023-04-27T12:16:31.858Z,12.02
2023-04-27T12:19:01.635Z,15.52
2023-04-27T12:21:28.299Z,13.88
2023-04-27T12:23:54.905Z,9.73
2023-04-27T12:26:21.647Z,16.20
2023-04-27T12:28:51.647Z,12.43
2023-04-27T12:31:24.134Z,13.32
2023-04-27T12:33:52.135Z,14.40
2023-04-27T12:36:18.739Z,10.73
2023-04-27T12:38:45.408Z,12.27
2023-04-27T12:41:12.046Z,12.57
2023-04-27T12:43:41.048Z,9.82
2023-04-27T12:46:08.135Z,13.27
2023-04-27T12:48:36.295Z,11.70
2023-04-27T12:51:03.492Z,9.68
2023-04-27T12:53:30.151Z,12.38
2023-04-27T12:55:56.792Z,16.10
2023-04-27T12:58:26.830Z,12.57
2023-04-27T13:00:53.534Z,16.80
2023-04-27T13:03:20.396Z,11.80
2023-04-27T13:05:51.742Z,13.32
2023-04-27T13:08:20.877Z,13.30
2023-04-27T13:10:47.520Z,14.50
2023-04-27T13:13:14.222Z,11.85
2023-04-27T13:15:40.868Z,12.57
2023-04-27T13:18:10.396Z,13.00
2023-04-27T13:20:37.942Z,11.50
2023-04-27T13:23:04.974Z,13.73
2023-04-27T13:25:31.794Z,11.45
2023-04-27T13:27:58.766Z,13.63
2023-04-27T13:30:25.575Z,14.48
2023-04-27T13:32:52.785Z,19.80
2023-04-27T13:35:19.461Z,14.50
2023-04-27T13:37:46.119Z,12.77
2023-04-27T13:40:12.740Z,11.18
2023-04-27T13:42:39.565Z,19.05
2023-04-27T13:45:06.339Z,12.95
2023-04-27T13:47:39.060Z,12.40
2023-04-27T13:50:06.236Z,13.43
2023-04-27T13:52:32.861Z,14.30
2023-04-27T13:54:59.443Z,14.63
2023-04-27T13:57:27.792Z,13.60
2023-04-27T13:59:54.616Z,15.70
2023-04-27T14:02:21.241Z,13.48
2023-04-27T14:04:47.911Z,19.15
2023-04-27T14:07:15.391Z,15.20
2023-04-27T14:09:42.196Z,19.08
2023-04-27T14:12:09.084Z,12.35
2023-04-27T14:14:36.092Z,14.90
2023-04-27T14:17:02.774Z,15.15
2023-04-27T14:19:29.457Z,19.38
2023-04-27T14:21:56.552Z,14.02
2023-04-27T14:24:23.219Z,14.57
2023-04-27T14:26:51.159Z,16.17
2023-04-27T14:29:37.730Z,14.57
2023-04-27T14:32:04.506Z,14.05
2023-04-27T14:34:31.308Z,14.77
2023-04-27T14:36:57.955Z,16.83
2023-04-27T14:39:28.082Z,16.45
2023-04-27T14:41:54.753Z,14.82
2023-04-27T14:44:21.331Z,18.65
2023-04-27T14:46:47.926Z,14.27
2023-04-27T14:49:14.972Z,15.45
2023-04-27T14:51:43.538Z,15.23
2023-04-27T14:54:13.373Z,18.85
2023-04-27T14:56:40.021Z,15.20
2023-04-27T14:59:07.997Z,18.05
2023-04-27T15:01:36.469Z,18.63
2023-04-27T15:04:03.361Z,21.10
2023-04-27T15:06:30.420Z,17.80
2023-04-27T15:08:59.288Z,14.13
2023-04-27T15:11:26.068Z,16.98
2023-04-27T15:13:52.690Z,17.30
2023-04-27T15:16:20.314Z,22.58
2023-04-27T15:18:47.370Z,15.38
2023-04-27T15:21:14.018Z,20.67
2023-04-27T15:23:40.730Z,21.25
2023-04-27T15:26:07.337Z,14.05
2023-04-27T15:28:53.066Z,16.98
2023-04-27T15:31:19.746Z,17.42
2023-04-27T15:33:46.404Z,13.63
2023-04-27T15:36:13.014Z,15.35
2023-04-27T15:38:41.064Z,17.83
2023-04-27T15:41:08.223Z,18.33
2023-04-27T15:43:35.179Z,18.65
2023-04-27T15:46:02.607Z,20.77
2023-04-27T15:48:31.616Z,22.05
2023-04-27T15:50:58.381Z,21.70
2023-04-27T15:53:24.958Z,19.48
2023-04-27T15:55:51.578Z,22.75
2023-04-27T15:58:20.434Z,18.95
2023-04-27T16:00:47.097Z,25.25
2023-04-27T16:03:14.392Z,18.65
2023-04-27T16:05:41.426Z,19.02
2023-04-27T16:08:08.582Z,20.92
2023-04-27T16:10:35.840Z,19.33
2023-04-27T16:13:02.685Z,17.25
2023-04-27T16:15:29.517Z,27.80
2023-04-27T16:17:56.220Z,23.15
2023-04-27T16:20:24.811Z,21.55
2023-04-27T16:23:00.588Z,23.70
2023-04-27T16:25:29.972Z,18.70
2023-04-27T16:27:56.837Z,21.35
2023-04-27T16:30:24.194Z,19.55
2023-04-27T16:32:51.018Z,22.70
2023-04-27T16:35:17.689Z,24.00
2023-04-27T16:37:44.350Z,19.83
2023-04-27T16:40:11.048Z,22.80
2023-04-27T16:42:37.667Z,25.30
2023-04-27T16:45:04.382Z,25.00
2023-04-27T16:47:31.639Z,23.77
2023-04-27T16:50:07.971Z,28.95
2023-04-27T16:52:34.707Z,23.55
2023-04-27T16:55:01.357Z,25.75
2023-04-27T16:57:28.186Z,31.95
2023-04-27T16:59:54.821Z,23.75
2023-04-27T17:02:25.202Z,22.67
2023-04-27T17:04:52.814Z,23.63
2023-04-27T17:07:19.485Z,23.00
2023-04-27T17:09:46.136Z,28.27
2023-04-27T17:12:14.864Z,30.08
2023-04-27T17:14:42.478Z,26.73
2023-04-27T17:17:09.288Z,24.95
2023-04-27T17:19:35.985Z,32.33
2023-04-27T17:22:02.584Z,24.65
2023-04-27T17:24:29.372Z,34.17
2023-04-27T17:26:56.021Z,26.98
2023-04-27T17:29:22.744Z,30.48
2023-04-27T17:31:50.456Z,25.73
2023-04-27T17:34:17.168Z,25.23
2023-04-27T17:36:43.838Z,28.08
2023-04-27T17:39:12.766Z,31.95
2023-04-27T17:41:39.572Z,29.73
2023-04-27T17:44:06.338Z,31.83
2023-04-27T17:46:33.329Z,24.05
2023-04-27T17:49:00.059Z,25.42
2023-04-27T17:51:26.958Z,26.83
2023-04-27T17:53:53.722Z,29.25
2023-04-27T17:56:20.393Z,34.58
2023-04-27T17:58:48.263Z,34.15
2023-04-27T18:01:15.123Z,26.42
2023-04-27T18:03:42.229Z,27.17
2023-04-27T18:06:09.196Z,25.70
2023-04-27T18:08:35.916Z,31.77
2023-04-27T18:11:02.641Z,26.48
2023-04-27T18:13:31.751Z,36.45
2023-04-27T18:15:58.765Z,30.45
2023-04-27T18:18:26.787Z,24.58
2023-04-27T18:20:53.399Z,26.48
2023-04-27T18:23:20.294Z,32.47
2023-04-27T18:25:46.924Z,30.80
2023-04-27T18:28:13.569Z,28.17
2023-04-27T18:30:40.165Z,26.95
2023-04-27T18:33:06.862Z,25.08
2023-04-27T18:35:33.481Z,27.02
2023-04-27T18:38:00.174Z,24.20
2023-04-27T18:40:26.857Z,29.20
2023-04-27T18:42:53.575Z,27.55
2023-04-27T18:45:20.305Z,26.83
2023-04-27T18:47:47.986Z,30.85
2023-04-27T18:50:14.769Z,23.45
2023-04-27T18:52:41.340Z,26.08
2023-04-27T18:55:08.498Z,29.67
2023-04-27T18:57:36.274Z,27.85
2023-04-27T19:00:05.596Z,25.35
2023-04-27T19:02:32.308Z,27.90
2023-04-27T19:05:11.326Z,24.30
2023-04-27T19:07:39.468Z,31.83
2023-04-27T19:10:06.651Z,27.85
2023-04-27T19:12:33.302Z,22.65
2023-04-27T19:14:59.981Z,27.13
2023-04-27T19:17:26.904Z,29.88
2023-04-27T19:19:53.680Z,27.70
2023-04-27T19:22:21.609Z,28.05
2023-04-27T19:24:51.196Z,29.15
2023-04-27T19:27:18.016Z,31.17
2023-04-27T19:29:44.630Z,31.75
2023-04-27T19:32:11.298Z,29.08
2023-04-27T19:34:37.865Z,25.15
2023-04-27T19:37:04.476Z,30.58
2023-04-27T19:39:33.750Z,34.08
2023-04-27T19:42:01.619Z,39.42
2023-04-27T19:44:28.214Z,33.65
2023-04-27T19:46:54.819Z,34.42
2023-04-27T19:49:21.468Z,39.75
2023-04-27T19:51:48.091Z,36.70
2023-04-27T19:54:14.854Z,37.47
2023-04-27T19:56:41.626Z,33.15
2023-04-27T19:59:08.270Z,37.03
2023-04-27T20:01:34.903Z,33.40
2023-04-27T20:04:01.690Z,27.50
2023-04-27T20:06:29.168Z,28.65
2023-04-27T20:08:56.120Z,34.03
2023-04-27T20:11:22.762Z,31.55
2023-04-27T20:13:49.462Z,37.95
2023-04-27T20:16:17.589Z,29.88
2023-04-27T20:18:45.296Z,33.45
2023-04-27T20:21:12.023Z,31.52
2023-04-27T20:23:38.670Z,38.22
2023-04-27T20:26:05.446Z,30.98
2023-04-27T20:28:32.491Z,35.65
2023-04-27T20:30:59.120Z,35.58
2023-04-27T20:33:25.740Z,35.33
2023-04-27T20:35:55.535Z,30.30
2023-04-27T20:38:23.723Z,32.60
2023-04-27T20:40:52.591Z,32.97
2023-04-27T20:43:19.515Z,30.35
2023-04-27T20:45:46.413Z,29.13
2023-04-27T20:48:13.307Z,24.67
2023-04-27T20:50:40.015Z,26.00
2023-04-27T20:53:06.713Z,22.17
2023-04-27T20:55:34.376Z,21.75
2023-04-27T20:58:01.249Z,19.83
2023-04-27T21:00:27.883Z,22.25
2023-04-27T21:02:54.734Z,20.17
2023-04-27T21:05:21.549Z,21.00
2023-04-27T21:07:48.288Z,20.98
2023-04-27T21:10:14.985Z,18.33
2023-04-27T21:12:41.558Z,20.35
2023-04-27T21:15:08.256Z,18.27
2023-04-27T21:17:34.888Z,21.48
2023-04-27T21:20:01.513Z,17.52
2023-04-27T21:22:28.153Z,18.08
2023-04-27T21:24:54.783Z,16.92
2023-04-27T21:27:22.162Z,14.60
2023-04-27T21:29:48.976Z,17.63
2023-04-27T21:32:15.776Z,15.30
2023-04-27T21:34:42.399Z,12.05
2023-04-27T21:37:08.992Z,13.63
2023-04-27T21:39:35.829Z,11.65
2023-04-27T21:42:02.422Z,10.98
2023-04-27T21:44:29.100Z,12.23
2023-04-27T21:46:55.682Z,11.65
2023-04-27T21:49:22.299Z,10.43
2023-04-27T21:51:48.909Z,9.32
2023-04-27T21:54:15.776Z,14.25
2023-04-27T21:56:42.685Z,11.90
2023-04-27T21:59:09.276Z,13.35
2023-04-27T22:01:36.615Z,11.25
2023-04-27T22:04:04.208Z,10.43
2023-04-27T22:06:31.044Z,9.27
2023-04-27T22:08:57.952Z,11.52
2023-04-27T22:11:24.579Z,11.32
2023-04-27T22:13:51.278Z,10.68
2023-04-27T22:16:17.935Z,11.00
2023-04-27T22:18:44.567Z,10.00
2023-04-27T22:21:12.306Z,10.55
2023-04-27T22:23:38.910Z,11.68
2023-04-27T22:26:07.153Z,11.48
2023-04-27T22:28:35.396Z,11.60
2023-04-27T22:31:02.000Z,11.20
2023-04-27T22:33:28.777Z,10.20
2023-04-27T22:35:55.369Z,9.65
2023-04-27T22:38:21.980Z,9.30
2023-04-27T22:40:48.555Z,9.65
2023-04-27T22:43:15.207Z,9.43
2023-04-27T22:45:41.823Z,9.05
2023-04-27T22:48:08.498Z,9.35
2023-04-27T22:50:35.688Z,8.35
2023-04-27T22:53:02.343Z,8.40
2023-04-27T22:55:28.918Z,8.60
2023-04-27T22:57:55.659Z,8.63
2023-04-27T23:00:22.274Z,9.73
2023-04-27T23:02:48.971Z,10.02
2023-04-27T23:05:16.566Z,8.43
2023-04-27T23:07:43.395Z,10.20
2023-04-27T23:10:10.349Z,9.98
2023-04-27T23:12:38.674Z,8.30
2023-04-27T23:15:05.396Z,6.95
2023-04-27T23:17:32.141Z,7.25
2023-04-27T23:19:58.914Z,8.45
2023-04-27T23:22:25.617Z,9.18
2023-04-27T23:24:52.264Z,6.97
2023-04-27T23:27:19.013Z,8.23
2023-04-27T23:29:45.638Z,8.80
2023-04-27T23:32:12.569Z,8.02
2023-04-27T23:34:39.250Z,7.63
2023-04-27T23:37:06.227Z,7.40
2023-04-27T23:39:32.814Z,7.30
2023-04-27T23:41:59.448Z,8.07
2023-04-27T23:44:26.276Z,8.02
2023-04-27T23:46:52.872Z,10.50
2023-04-27T23:49:19.464Z,8.75
2023-04-27T23:51:46.278Z,8.32
2023-04-27T23:54:12.993Z,7.05
2023-04-27T23:56:39.669Z,7.78
2023-04-27T23:59:06.504Z,8.35
